createdAt,value
2018-07-14T00:01:23.180Z,19.86
2018-07-14T00:03:52.224Z,19.79
2018-07-14T00:06:21.302Z,19.63
2018-07-14T00:08:50.411Z,19.61
2018-07-14T00:11:19.562Z,19.68
2018-07-14T00:13:48.656Z,19.76
2018-07-14T00:16:17.786Z,19.71
2018-07-14T00:18:46.836Z,19.68
2018-07-14T00:21:15.884Z,19.57
2018-07-14T00:23:44.935Z,19.44
2018-07-14T00:26:18.172Z,19.34
2018-07-14T00:28:47.671Z,19.45
2018-07-14T00:31:16.985Z,19.62
2018-07-14T00:33:46.135Z,19.50
2018-07-14T00:36:15.185Z,19.51
2018-07-14T00:38:44.222Z,19.49
2018-07-14T00:41:13.242Z,19.48
2018-07-14T00:43:42.304Z,19.49
2018-07-14T00:46:11.390Z,19.45
2018-07-14T00:48:40.439Z,19.37
2018-07-14T00:51:09.486Z,19.35
2018-07-14T00:53:38.515Z,19.30
2018-07-14T00:56:07.569Z,19.33
2018-07-14T00:58:36.737Z,19.19
2018-07-14T01:01:05.774Z,19.30
2018-07-14T01:03:34.900Z,19.22
2018-07-14T01:06:03.906Z,19.27
2018-07-14T01:08:32.987Z,19.20
2018-07-14T01:11:02.047Z,19.13
2018-07-14T01:13:31.086Z,19.09
2018-07-14T01:16:00.512Z,19.06
2018-07-14T01:18:29.757Z,19.16
2018-07-14T01:20:58.818Z,19.19
2018-07-14T01:23:27.906Z,19.11
2018-07-14T01:25:57.313Z,19.11
2018-07-14T01:28:26.389Z,19.02
2018-07-14T01:30:55.487Z,18.98
2018-07-14T01:33:24.540Z,18.94
2018-07-14T01:35:53.646Z,18.89
2018-07-14T01:38:22.707Z,18.88
2018-07-14T01:40:51.941Z,18.80
2018-07-14T01:43:21.112Z,18.80
2018-07-14T01:45:50.232Z,18.72
2018-07-14T01:48:19.241Z,18.85
2018-07-14T01:50:48.433Z,18.74
2018-07-14T01:53:17.613Z,18.77
2018-07-14T01:55:46.655Z,18.69
2018-07-14T01:58:15.702Z,18.75
2018-07-14T02:00:44.814Z,18.73
2018-07-14T02:03:13.902Z,18.59
2018-07-14T02:05:42.973Z,18.54
2018-07-14T02:08:12.088Z,18.48
2018-07-14T02:10:41.308Z,18.47
2018-07-14T02:13:10.308Z,18.34
2018-07-14T02:15:39.364Z,18.38
2018-07-14T02:18:08.388Z,18.26
2018-07-14T02:20:37.647Z,18.26
2018-07-14T02:23:06.654Z,18.22
2018-07-14T02:25:40.074Z,18.17
2018-07-14T02:28:09.107Z,18.08
2018-07-14T02:30:38.257Z,17.97
2018-07-14T02:33:07.249Z,17.92
2018-07-14T02:35:37.254Z,17.83
2018-07-14T02:38:06.344Z,17.80
2018-07-14T02:40:35.400Z,17.79
2018-07-14T02:43:04.586Z,17.78
2018-07-14T02:45:33.605Z,17.75
2018-07-14T02:48:02.678Z,17.64
2018-07-14T02:50:31.758Z,17.71
2018-07-14T02:53:00.916Z,17.63
2018-07-14T02:55:29.936Z,17.63
2018-07-14T02:57:59.021Z,17.59
2018-07-14T03:00:28.077Z,17.50
2018-07-14T03:03:01.599Z,17.54
2018-07-14T03:05:30.632Z,17.40
2018-07-14T03:07:59.717Z,17.49
2018-07-14T03:10:28.785Z,17.44
2018-07-14T03:12:57.850Z,17.41
2018-07-14T03:15:26.877Z,17.39
2018-07-14T03:17:55.971Z,17.34
2018-07-14T03:20:25.008Z,17.29
2018-07-14T03:22:54.031Z,17.42
2018-07-14T03:25:23.149Z,17.38
2018-07-14T03:27:52.174Z,17.41
2018-07-14T03:30:25.146Z,17.34
2018-07-14T03:32:54.237Z,17.35
2018-07-14T03:35:23.545Z,17.20
2018-07-14T03:37:52.624Z,17.29
2018-07-14T03:40:21.723Z,17.34
2018-07-14T03:42:50.753Z,17.21
2018-07-14T03:45:19.843Z,17.19
2018-07-14T03:47:49.139Z,17.17
2018-07-14T03:50:18.148Z,17.10
2018-07-14T03:52:47.233Z,17.15
2018-07-14T03:55:16.228Z,17.24
2018-07-14T03:57:45.397Z,17.17
2018-07-14T04:00:14.481Z,17.17
2018-07-14T04:02:43.521Z,17.19
2018-07-14T04:05:12.706Z,17.11
2018-07-14T04:07:41.701Z,17.10
2018-07-14T04:10:10.800Z,17.02
2018-07-14T04:12:39.859Z,16.98
2018-07-14T04:15:08.933Z,16.86
2018-07-14T04:17:38.265Z,16.83
2018-07-14T04:20:07.357Z,16.75
2018-07-14T04:22:36.453Z,16.80
2018-07-14T04:25:05.525Z,16.83
2018-07-14T04:27:34.571Z,16.84
2018-07-14T04:30:04.049Z,16.87
2018-07-14T04:32:33.226Z,16.88
2018-07-14T04:35:02.457Z,16.91
2018-07-14T04:37:31.442Z,16.91
2018-07-14T04:40:00.452Z,16.96
2018-07-14T04:42:29.611Z,17.09
2018-07-14T04:44:58.629Z,17.29
2018-07-14T04:47:27.645Z,17.38
2018-07-14T04:49:56.705Z,17.45
2018-07-14T04:52:25.731Z,17.45
2018-07-14T04:54:54.792Z,17.40
2018-07-14T04:57:23.892Z,17.22
2018-07-14T04:59:53.233Z,17.23
2018-07-14T05:02:22.260Z,17.19
2018-07-14T05:04:51.301Z,17.09
2018-07-14T05:07:20.354Z,17.15
2018-07-14T05:09:49.384Z,17.35
2018-07-14T05:12:18.456Z,17.56
2018-07-14T05:14:47.517Z,17.59
2018-07-14T05:17:16.575Z,17.50
2018-07-14T05:19:45.593Z,17.38
2018-07-14T05:22:14.690Z,17.40
2018-07-14T05:24:43.740Z,17.44
2018-07-14T05:27:13.006Z,17.58
2018-07-14T05:29:42.151Z,17.80
2018-07-14T05:32:11.165Z,18.06
2018-07-14T05:34:40.235Z,18.03
2018-07-14T05:37:09.280Z,17.69
2018-07-14T05:39:38.407Z,17.67
2018-07-14T05:42:07.509Z,17.74
2018-07-14T05:44:37.177Z,17.82
2018-07-14T05:47:06.329Z,18.12
2018-07-14T05:49:35.515Z,18.37
2018-07-14T05:52:04.636Z,18.34
2018-07-14T05:54:33.803Z,18.23
2018-07-14T05:57:02.852Z,18.08
2018-07-14T05:59:31.990Z,18.02
2018-07-14T06:02:01.209Z,18.16
2018-07-14T06:04:30.245Z,18.15
2018-07-14T06:06:59.296Z,18.24
2018-07-14T06:09:28.552Z,18.42
2018-07-14T06:11:57.675Z,18.59
2018-07-14T06:14:26.786Z,18.77
2018-07-14T06:16:55.884Z,18.57
2018-07-14T06:19:25.724Z,18.26
2018-07-14T06:21:54.867Z,18.55
2018-07-14T06:24:23.945Z,18.99
2018-07-14T06:26:53.117Z,19.17
2018-07-14T06:29:22.153Z,19.24
2018-07-14T06:31:51.331Z,19.24
2018-07-14T06:34:20.301Z,19.10
2018-07-14T06:36:49.355Z,19.10
2018-07-14T06:39:18.508Z,19.28
2018-07-14T06:41:47.655Z,19.01
2018-07-14T06:44:17.017Z,18.68
2018-07-14T06:46:46.060Z,18.67
2018-07-14T06:49:15.168Z,18.46
2018-07-14T06:51:44.256Z,18.47
2018-07-14T06:54:13.682Z,18.62
2018-07-14T06:56:44.096Z,18.95
2018-07-14T06:59:13.378Z,18.92
2018-07-14T07:01:42.512Z,19.14
2018-07-14T07:04:11.932Z,19.28
2018-07-14T07:06:41.114Z,19.23
2018-07-14T07:09:10.287Z,19.09
2018-07-14T07:11:39.456Z,19.17
2018-07-14T07:14:08.604Z,19.44
2018-07-14T07:16:37.782Z,19.57
2018-07-14T07:19:06.848Z,19.49
2018-07-14T07:21:35.921Z,19.62
2018-07-14T07:24:06.069Z,19.69
2018-07-14T07:26:35.113Z,19.72
2018-07-14T07:29:04.406Z,19.88
2018-07-14T07:31:33.612Z,20.00
2018-07-14T07:34:03.061Z,20.01
2018-07-14T07:36:32.294Z,19.84
2018-07-14T07:39:01.594Z,19.74
2018-07-14T07:41:30.714Z,19.86
2018-07-14T07:43:59.954Z,19.94
2018-07-14T07:46:29.368Z,19.90
2018-07-14T07:48:58.528Z,19.99
2018-07-14T07:51:27.664Z,20.09
2018-07-14T07:53:56.786Z,19.89
2018-07-14T07:56:26.251Z,19.89
2018-07-14T07:58:55.385Z,20.12
2018-07-14T08:01:24.454Z,20.33
2018-07-14T08:03:53.815Z,20.50
2018-07-14T08:06:22.849Z,20.67
2018-07-14T08:08:52.224Z,20.76
2018-07-14T08:11:21.516Z,20.78
2018-07-14T08:13:50.508Z,20.68
2018-07-14T08:16:20.049Z,20.49
2018-07-14T08:18:49.260Z,20.69
2018-07-14T08:21:18.276Z,20.75
2018-07-14T08:23:47.713Z,20.86
2018-07-14T08:26:16.768Z,21.02
2018-07-14T08:28:46.061Z,21.07
2018-07-14T08:31:15.303Z,21.23
2018-07-14T08:33:44.437Z,21.09
2018-07-14T08:36:13.568Z,20.89
2018-07-14T08:38:42.907Z,20.66
2018-07-14T08:41:11.951Z,20.80
2018-07-14T08:43:41.049Z,21.00
2018-07-14T08:46:10.125Z,20.97
2018-07-14T08:48:39.124Z,20.94
2018-07-14T08:51:08.798Z,20.84
2018-07-14T08:53:37.857Z,21.01
2018-07-14T08:56:06.932Z,21.24
2018-07-14T08:58:35.933Z,20.95
2018-07-14T09:01:05.125Z,20.80
2018-07-14T09:03:34.129Z,21.00
2018-07-14T09:06:03.934Z,20.99
2018-07-14T09:08:33.357Z,20.75
2018-07-14T09:11:02.431Z,20.96
2018-07-14T09:13:31.497Z,20.93
2018-07-14T09:16:00.997Z,21.06
2018-07-14T09:18:30.163Z,21.36
2018-07-14T09:20:59.533Z,21.49
2018-07-14T09:23:28.742Z,21.62
2018-07-14T09:25:58.303Z,21.54
2018-07-14T09:28:27.581Z,21.66
2018-07-14T09:30:56.944Z,21.66
2018-07-14T09:33:26.109Z,21.29
2018-07-14T09:35:55.582Z,20.71
2018-07-14T09:38:24.634Z,20.90
2018-07-14T09:40:53.665Z,21.11
2018-07-14T09:43:22.841Z,21.32
2018-07-14T09:45:51.990Z,21.22
2018-07-14T09:48:21.068Z,21.18
2018-07-14T09:50:50.122Z,21.48
2018-07-14T09:53:19.955Z,21.74
2018-07-14T09:55:49.314Z,21.59
2018-07-14T09:58:18.464Z,21.48
2018-07-14T10:00:52.950Z,21.36
2018-07-14T10:03:22.239Z,21.55
2018-07-14T10:05:51.383Z,21.57
2018-07-14T10:08:21.280Z,21.81
2018-07-14T10:10:50.644Z,21.32
2018-07-14T10:13:19.861Z,21.40
2018-07-14T10:15:49.203Z,21.62
2018-07-14T10:18:18.600Z,21.51
2018-07-14T10:20:47.778Z,21.35
2018-07-14T10:23:17.092Z,21.29
2018-07-14T10:25:46.533Z,21.55
2018-07-14T10:28:15.743Z,21.69
2018-07-14T10:30:44.900Z,21.85
2018-07-14T10:33:14.142Z,21.79
2018-07-14T10:35:43.378Z,21.78
2018-07-14T10:38:12.596Z,21.88
2018-07-14T10:40:41.884Z,22.05
2018-07-14T10:43:10.988Z,22.32
2018-07-14T10:45:41.850Z,22.10
2018-07-14T10:48:11.430Z,22.09
2018-07-14T10:50:40.910Z,22.15
2018-07-14T10:53:09.981Z,22.09
2018-07-14T10:55:39.209Z,21.81
2018-07-14T10:58:08.462Z,21.80
2018-07-14T11:00:38.518Z,22.05
2018-07-14T11:03:11.197Z,21.99
2018-07-14T11:05:40.265Z,22.16
2018-07-14T11:08:09.389Z,22.29
2018-07-14T11:10:38.721Z,22.63
2018-07-14T11:13:07.913Z,22.44
2018-07-14T11:15:36.978Z,22.10
2018-07-14T11:18:06.125Z,22.24
2018-07-14T11:20:35.307Z,22.12
2018-07-14T11:23:04.593Z,22.23
2018-07-14T11:25:33.890Z,22.30
2018-07-14T11:28:03.062Z,22.25
2018-07-14T11:30:32.148Z,22.19
2018-07-14T11:33:01.461Z,22.25
2018-07-14T11:35:30.671Z,22.36
2018-07-14T11:38:00.981Z,22.45
2018-07-14T11:40:30.038Z,22.44
2018-07-14T11:42:59.200Z,22.36
2018-07-14T11:45:28.288Z,22.52
2018-07-14T11:47:57.365Z,22.54
2018-07-14T11:50:26.465Z,22.54
2018-07-14T11:52:55.507Z,22.70
2018-07-14T11:55:25.210Z,22.69
2018-07-14T11:57:54.417Z,22.86
2018-07-14T12:00:23.646Z,22.86
2018-07-14T12:02:53.074Z,22.93
2018-07-14T12:05:22.496Z,23.07
2018-07-14T12:07:51.771Z,23.15
2018-07-14T12:10:21.055Z,23.04
2018-07-14T12:12:50.247Z,22.84
2018-07-14T12:15:20.517Z,22.85
2018-07-14T12:17:49.984Z,22.94
2018-07-14T12:20:19.702Z,22.90
2018-07-14T12:22:48.806Z,23.12
2018-07-14T12:25:18.558Z,23.07
2018-07-14T12:27:47.608Z,23.15
2018-07-14T12:30:16.955Z,23.28
2018-07-14T12:32:46.326Z,22.99
2018-07-14T12:35:15.405Z,22.89
2018-07-14T12:37:44.552Z,22.88
2018-07-14T12:40:13.618Z,23.05
2018-07-14T12:42:42.849Z,23.28
2018-07-14T12:45:12.032Z,23.45
2018-07-14T12:47:41.222Z,23.46
2018-07-14T12:50:10.464Z,23.50
2018-07-14T12:52:39.671Z,23.48
2018-07-14T12:55:08.874Z,23.56
2018-07-14T12:57:38.472Z,23.50
2018-07-14T13:00:07.928Z,23.42
2018-07-14T13:02:37.520Z,23.50
2018-07-14T13:05:06.890Z,23.53
2018-07-14T13:07:36.041Z,23.52
2018-07-14T13:10:06.362Z,23.53
2018-07-14T13:12:35.441Z,23.67
2018-07-14T13:15:04.789Z,23.57
2018-07-14T13:17:33.902Z,23.54
2018-07-14T13:20:03.090Z,23.44
2018-07-14T13:22:32.456Z,23.56
2018-07-14T13:25:01.766Z,23.81
2018-07-14T13:27:30.904Z,23.98
2018-07-14T13:30:00.131Z,23.96
2018-07-14T13:32:29.368Z,23.83
2018-07-14T13:34:58.532Z,23.67
2018-07-14T13:37:27.678Z,23.50
2018-07-14T13:39:56.816Z,23.68
2018-07-14T13:42:25.931Z,23.63
2018-07-14T13:44:55.316Z,23.62
2018-07-14T13:47:24.555Z,23.55
2018-07-14T13:49:53.851Z,23.73
2018-07-14T13:52:23.223Z,23.99
2018-07-14T13:54:52.597Z,23.63
2018-07-14T13:57:21.836Z,23.53
2018-07-14T13:59:51.109Z,23.58
2018-07-14T14:02:20.222Z,23.42
2018-07-14T14:04:49.344Z,23.57
2018-07-14T14:07:18.585Z,23.47
2018-07-14T14:09:48.359Z,23.62
2018-07-14T14:12:18.666Z,23.68
2018-07-14T14:14:47.889Z,23.63
2018-07-14T14:17:17.369Z,23.71
2018-07-14T14:19:46.644Z,23.61
2018-07-14T14:22:15.881Z,23.56
2018-07-14T14:24:45.080Z,23.54
2018-07-14T14:27:14.586Z,23.46
2018-07-14T14:29:44.270Z,23.69
2018-07-14T14:32:13.573Z,23.37
2018-07-14T14:34:42.676Z,23.58
2018-07-14T14:37:11.812Z,23.71
2018-07-14T14:39:40.935Z,23.94
2018-07-14T14:42:10.401Z,23.99
2018-07-14T14:44:39.456Z,24.00
2018-07-14T14:47:08.631Z,23.96
2018-07-14T14:49:37.981Z,23.84
2018-07-14T14:52:07.285Z,23.92
2018-07-14T14:54:37.025Z,23.67
2018-07-14T14:57:06.996Z,23.68
2018-07-14T14:59:36.256Z,23.88
2018-07-14T15:02:05.423Z,23.80
2018-07-14T15:04:36.594Z,23.94
2018-07-14T15:07:06.183Z,24.15
2018-07-14T15:09:35.505Z,24.22
2018-07-14T15:12:04.627Z,24.12
2018-07-14T15:14:34.219Z,24.06
2018-07-14T15:17:03.387Z,24.09
2018-07-14T15:19:32.421Z,23.98
2018-07-14T15:22:01.534Z,23.95
2018-07-14T15:24:30.605Z,23.94
2018-07-14T15:27:00.269Z,24.09
2018-07-14T15:29:29.354Z,24.05
2018-07-14T15:31:59.238Z,24.43
2018-07-14T15:34:28.470Z,24.66
2018-07-14T15:36:58.115Z,25.09
2018-07-14T15:39:27.241Z,25.36
2018-07-14T15:41:56.469Z,24.75
2018-07-14T15:44:25.541Z,24.63
2018-07-14T15:46:54.638Z,24.94
2018-07-14T15:49:23.753Z,24.97
2018-07-14T15:51:53.015Z,25.04
2018-07-14T15:54:22.139Z,25.74
2018-07-14T15:56:51.263Z,26.75
2018-07-14T15:59:20.330Z,27.45
2018-07-14T16:01:49.402Z,28.62
2018-07-14T16:04:18.559Z,29.16
2018-07-14T16:06:47.672Z,29.97
2018-07-14T16:09:16.887Z,29.95
2018-07-14T16:11:46.218Z,31.01
2018-07-14T16:14:15.711Z,31.63
2018-07-14T16:16:45.044Z,30.03
2018-07-14T16:19:14.074Z,29.39
2018-07-14T16:21:43.210Z,30.10
2018-07-14T16:24:12.252Z,30.46
2018-07-14T16:26:41.544Z,31.65
2018-07-14T16:29:10.686Z,32.23
2018-07-14T16:31:39.832Z,31.00
2018-07-14T16:34:09.913Z,29.81
2018-07-14T16:36:38.992Z,30.51
2018-07-14T16:39:09.464Z,30.55
2018-07-14T16:41:38.752Z,30.71
2018-07-14T16:44:07.933Z,31.30
2018-07-14T16:46:37.257Z,29.46
2018-07-14T16:49:06.458Z,29.86
2018-07-14T16:51:35.751Z,30.68
2018-07-14T16:54:04.870Z,30.28
2018-07-14T16:56:34.101Z,30.87
2018-07-14T16:59:03.197Z,30.00
2018-07-14T17:01:32.315Z,30.15
2018-07-14T17:04:01.472Z,30.64
2018-07-14T17:06:30.583Z,28.96
2018-07-14T17:08:59.776Z,27.53
2018-07-14T17:11:29.497Z,25.96
2018-07-14T17:13:59.774Z,25.21
2018-07-14T17:16:29.230Z,24.71
2018-07-14T17:18:58.446Z,24.31
2018-07-14T17:21:27.579Z,24.11
2018-07-14T17:23:56.710Z,23.88
2018-07-14T17:26:25.945Z,23.77
2018-07-14T17:28:55.241Z,23.77
2018-07-14T17:31:24.413Z,23.71
2018-07-14T17:33:53.613Z,23.68
2018-07-14T17:36:22.829Z,23.50
2018-07-14T17:38:51.951Z,23.37
2018-07-14T17:41:22.448Z,23.34
2018-07-14T17:43:53.339Z,23.24
2018-07-14T17:46:22.891Z,23.22
2018-07-14T17:48:52.745Z,23.08
2018-07-14T17:51:22.745Z,22.98
2018-07-14T17:53:52.102Z,22.83
2018-07-14T17:56:21.402Z,22.79
2018-07-14T17:58:50.668Z,22.89
2018-07-14T18:01:19.751Z,22.80
2018-07-14T18:03:49.719Z,22.72
2018-07-14T18:06:18.871Z,22.60
2018-07-14T18:08:48.147Z,22.63
2018-07-14T18:11:17.373Z,22.67
2018-07-14T18:13:46.466Z,22.63
2018-07-14T18:16:18.697Z,22.62
2018-07-14T18:21:15.700Z,22.35
2018-07-14T18:23:44.842Z,22.46
2018-07-14T18:26:13.985Z,22.38
2018-07-14T18:28:43.856Z,22.24
2018-07-14T18:31:12.871Z,22.26
2018-07-14T18:33:41.993Z,22.27
2018-07-14T18:36:11.374Z,22.24
2018-07-14T18:38:40.309Z,22.14
2018-07-14T18:41:09.490Z,22.15
2018-07-14T18:43:38.559Z,22.21
2018-07-14T18:46:07.725Z,22.02
2018-07-14T18:48:36.791Z,22.19
2018-07-14T18:51:06.128Z,22.22
2018-07-14T18:53:35.937Z,22.03
2018-07-14T18:56:05.460Z,21.83
2018-07-14T18:58:34.485Z,21.82
2018-07-14T19:01:04.028Z,21.77
2018-07-14T19:03:33.663Z,21.76
2018-07-14T19:06:03.220Z,21.73
2018-07-14T19:08:32.290Z,21.59
2018-07-14T19:11:01.446Z,21.74
2018-07-14T19:13:30.663Z,21.45
2018-07-14T19:15:59.732Z,21.31
2018-07-14T19:18:29.793Z,21.32
2018-07-14T19:20:58.950Z,20.99
2018-07-14T19:23:28.416Z,20.97
2018-07-14T19:25:57.910Z,21.00
2018-07-14T19:28:27.028Z,20.76
2018-07-14T19:30:56.184Z,20.80
2018-07-14T19:33:25.358Z,20.65
2018-07-14T19:35:54.755Z,20.53
2018-07-14T19:38:24.084Z,20.63
2018-07-14T19:40:53.258Z,20.61
2018-07-14T19:43:22.559Z,20.56
2018-07-14T19:45:52.476Z,20.37
2018-07-14T19:48:21.556Z,20.33
2018-07-14T19:50:50.611Z,20.51
2018-07-14T19:53:19.803Z,20.23
2018-07-14T19:55:48.902Z,20.33
2018-07-14T19:58:18.207Z,20.29
2018-07-14T20:00:47.546Z,20.07
2018-07-14T20:03:17.019Z,20.12
2018-07-14T20:05:46.345Z,20.14
2018-07-14T20:08:15.462Z,20.03
2018-07-14T20:10:45.178Z,19.84
2018-07-14T20:13:14.313Z,19.73
2018-07-14T20:15:43.469Z,19.91
2018-07-14T20:18:12.509Z,19.84
2018-07-14T20:20:41.574Z,19.84
2018-07-14T20:23:10.834Z,19.66
2018-07-14T20:25:39.851Z,19.60
2018-07-14T20:28:08.948Z,19.65
2018-07-14T20:30:38.112Z,19.47
2018-07-14T20:33:07.325Z,19.54
2018-07-14T20:35:36.376Z,19.38
2018-07-14T20:38:05.428Z,19.33
2018-07-14T20:40:34.521Z,19.31
2018-07-14T20:43:03.631Z,19.25
2018-07-14T20:45:32.881Z,19.18
2018-07-14T20:48:01.987Z,19.16
2018-07-14T20:50:31.874Z,19.25
2018-07-14T20:53:01.084Z,19.09
2018-07-14T20:55:30.362Z,18.89
2018-07-14T20:57:59.520Z,18.94
2018-07-14T21:00:28.688Z,18.83
2018-07-14T21:02:58.056Z,18.90
2018-07-14T21:05:27.324Z,18.81
2018-07-14T21:07:56.467Z,18.97
2018-07-14T21:10:25.604Z,18.82
2018-07-14T21:12:54.662Z,18.66
2018-07-14T21:15:23.897Z,18.58
2018-07-14T21:17:52.970Z,18.53
2018-07-14T21:20:22.092Z,18.62
2018-07-14T21:22:51.926Z,18.40
2018-07-14T21:25:20.982Z,18.50
2018-07-14T21:27:50.018Z,18.44
2018-07-14T21:30:19.152Z,18.41
2018-07-14T21:32:48.229Z,18.38
2018-07-14T21:35:17.288Z,18.35
2018-07-14T21:37:46.560Z,18.19
2018-07-14T21:40:15.844Z,18.29
2018-07-14T21:42:44.855Z,18.32
2018-07-14T21:45:13.908Z,18.14
2018-07-14T21:47:43.173Z,18.05
2018-07-14T21:50:12.583Z,17.99
2018-07-14T21:52:41.723Z,18.05
2018-07-14T21:55:10.794Z,18.17
2018-07-14T21:57:39.818Z,18.00
2018-07-14T22:00:09.026Z,17.97
2018-07-14T22:02:38.117Z,18.00
2018-07-14T22:05:07.363Z,17.92
2018-07-14T22:07:36.402Z,17.97
2018-07-14T22:10:05.501Z,17.94
2018-07-14T22:12:34.517Z,17.84
2018-07-14T22:15:03.655Z,17.86
2018-07-14T22:17:32.681Z,17.92
2018-07-14T22:20:01.867Z,17.82
2018-07-14T22:22:30.930Z,17.72
2018-07-14T22:25:00.937Z,17.71
2018-07-14T22:27:30.313Z,17.68
2018-07-14T22:29:59.380Z,17.57
2018-07-14T22:32:28.470Z,17.43
2018-07-14T22:34:57.664Z,17.66
2018-07-14T22:37:26.782Z,17.60
2018-07-14T22:39:55.853Z,17.41
2018-07-14T22:42:24.924Z,17.58
2018-07-14T22:44:54.939Z,17.57
2018-07-14T22:47:24.999Z,17.58
2018-07-14T22:49:54.140Z,17.48
2018-07-14T22:52:23.297Z,17.52
2018-07-14T22:54:52.425Z,17.38
2018-07-14T22:57:21.571Z,17.42
2018-07-14T22:59:50.813Z,17.36
2018-07-14T23:02:19.959Z,17.35
2018-07-14T23:04:49.037Z,17.33
2018-07-14T23:07:18.157Z,17.20
2018-07-14T23:09:47.385Z,17.19
2018-07-14T23:12:16.420Z,17.30
2018-07-14T23:14:45.540Z,17.34
2018-07-14T23:17:14.676Z,17.22
2018-07-14T23:19:43.801Z,17.04
2018-07-14T23:22:12.901Z,17.13
2018-07-14T23:24:42.061Z,17.12
2018-07-14T23:27:11.024Z,17.11
2018-07-14T23:29:40.052Z,17.14
2018-07-14T23:32:09.083Z,16.98
2018-07-14T23:34:38.190Z,17.03
2018-07-14T23:37:07.208Z,16.90
2018-07-14T23:39:36.327Z,16.84
2018-07-14T23:42:05.359Z,17.06
2018-07-14T23:44:34.430Z,16.83
2018-07-14T23:47:03.583Z,17.12
2018-07-14T23:49:32.823Z,17.00
2018-07-14T23:52:01.979Z,17.18
2018-07-14T23:54:31.019Z,17.14
2018-07-14T23:57:00.121Z,16.94
2018-07-14T23:59:29.157Z,16.92
